Time;durP1;ratioP1;P1;durP2;ratioP2;P2;SDS_P1;SDS_P2;PMS_P1;PMS_P2;Temp;Humidity;BMP_temperature;BMP_pressure;BME280_temperature;BME280_humidity;BME280_pressure;Samples;Min_cycle;Max_cycle;Signal;HPM_P1;HPM_P2
2021/12/18 00:00:40;;;;;;;28.25;19.27;;;128.30;2252.80;;;;;;6186094;23;20071;-91
2021/12/18 00:03:07;;;;;;;34.10;19.92;;;103.30;2227.20;;;;;;6160462;23;20051;-90
2021/12/18 00:05:33;;;;;;;29.55;19.73;;;128.40;2252.80;;;;;;6160618;23;20051;-90
2021/12/18 00:07:59;;;;;;;23.48;14.45;;;128.50;2252.80;;;;;;6160837;23;20008;-91
2021/12/18 00:10:25;;;;;;;26.92;17.35;;;128.40;2252.80;;;;;;6161158;23;20029;-90
2021/12/18 00:12:52;;;;;;;29.02;19.33;;;128.20;2252.80;;;;;;6162506;23;20281;-90
2021/12/18 00:15:23;;;;;;;29.35;20.70;;;128.30;2252.80;;;;;;6164350;23;20004;-90
2021/12/18 00:17:49;;;;;;;34.35;18.35;;;128.20;2252.80;;;;;;6164700;23;20056;-90
2021/12/18 00:20:16;;;;;;;22.83;15.05;;;128.20;2252.80;;;;;;6164208;23;20005;-90
2021/12/18 00:22:44;;;;;;;52.70;24.88;;;128.30;2252.80;;;;;;6162612;23;19997;-90
2021/12/18 00:25:11;;;;;;;39.83;21.92;;;128.30;2252.80;;;;;;6162531;23;20009;-91
2021/12/18 00:27:36;;;;;;;33.10;20.30;;;128.20;2252.80;;;;;;6162425;23;20140;-90
2021/12/18 00:30:07;;;;;;;34.50;20.20;;;128.30;2252.80;;;;;;6162254;23;20359;-90
2021/12/18 00:32:32;;;;;;;23.85;13.57;;;128.20;2252.80;;;;;;6162396;23;19997;-90
2021/12/18 00:34:58;;;;;;;14.57;11.23;;;128.20;2252.80;;;;;;6162184;23;19994;-91
2021/12/18 00:37:24;;;;;;;14.82;10.60;;;128.30;2252.80;;;;;;6162298;23;20020;-91
2021/12/18 00:39:58;;;;;;;18.20;13.18;;;128.30;2252.80;;;;;;6162186;23;20067;-89
2021/12/18 00:44:50;;;;;;;28.75;18.30;;;128.30;2252.80;;;;;;6189056;23;20001;-90
2021/12/18 00:47:17;;;;;;;31.98;19.95;;;128.40;2252.80;;;;;;6162160;23;20041;-91
2021/12/18 00:49:43;;;;;;;34.75;23.15;;;128.50;2252.80;;;;;;6162596;23;19999;-91
2021/12/18 00:52:08;;;;;;;33.22;20.77;;;128.30;2252.80;;;;;;6188209;23;20068;-91
2021/12/18 00:54:35;;;;;;;23.55;15.65;;;128.30;2252.80;;;;;;6162163;23;20411;-91
2021/12/18 00:57:02;;;;;;;31.13;20.52;;;128.20;2252.80;;;;;;6161730;23;20020;-91
2021/12/18 00:59:28;;;;;;;24.40;16.17;;;128.10;2252.80;;;;;;6188372;23;20396;-89
2021/12/18 01:01:54;;;;;;;18.75;13.75;;;128.10;2252.80;;;;;;6161928;23;20009;-90
2021/12/18 01:04:20;;;;;;;18.65;13.93;;;128.10;2252.80;;;;;;6162276;23;20001;-90
2021/12/18 01:06:46;;;;;;;16.65;12.18;;;128.00;2252.80;;;;;;6161941;23;19993;-90
2021/12/18 01:09:12;;;;;;;15.73;11.98;;;103.30;2227.20;;;;;;6162163;23;20001;-91
2021/12/18 01:11:44;;;;;;;31.08;18.48;;;103.30;2227.20;;;;;;6162169;23;20408;-91
2021/12/18 01:16:59;;;;;;;20.48;14.02;;;103.20;2227.20;;;;;;6198198;23;20007;-91
2021/12/18 01:24:53;;;;;;;22.35;14.40;;;103.10;2227.20;;;;;;6188000;23;20008;-90
2021/12/18 01:27:19;;;;;;;16.95;11.48;;;103.10;2227.20;;;;;;6162039;23;20001;-90
2021/12/18 01:29:46;;;;;;;20.80;11.45;;;103.20;2227.20;;;;;;6161864;23;20051;-91
2021/12/18 01:32:12;;;;;;;9.82;6.50;;;103.00;2227.20;;;;;;6161999;23;20008;-91
2021/12/18 01:34:37;;;;;;;11.20;7.07;;;103.10;2227.20;;;;;;6161847;23;19997;-91
2021/12/18 01:37:04;;;;;;;14.73;7.25;;;103.20;2227.20;;;;;;6162040;23;20075;-91
2021/12/18 01:39:30;;;;;;;11.57;7.32;;;103.20;2227.20;;;;;;6162236;23;20005;-91
2021/12/18 01:52:33;;;;;;;13.40;7.65;;;103.10;2227.20;;;;;;6190594;23;20084;-90
2021/12/18 01:54:59;;;;;;;10.15;7.20;;;103.10;2227.20;;;;;;6163125;23;20026;-91
2021/12/18 01:57:25;;;;;;;9.25;6.57;;;103.10;2227.20;;;;;;6161757;23;20040;-90
2021/12/18 01:59:51;;;;;;;11.65;7.63;;;103.10;2227.20;;;;;;6161639;23;19997;-91
2021/12/18 02:02:18;;;;;;;11.60;6.85;;;103.10;2227.20;;;;;;6161655;23;20012;-91
2021/12/18 02:04:44;;;;;;;13.95;9.73;;;103.10;2227.20;;;;;;6161444;23;19993;-91
2021/12/18 02:07:10;;;;;;;18.13;10.02;;;103.10;2227.20;;;;;;6161790;23;19997;-91
2021/12/18 02:10:03;;;;;;;10.18;6.38;;;103.10;2227.20;;;;;;6161673;23;20070;-91
2021/12/18 02:12:30;;;;;;;9.55;6.40;;;103.10;2227.20;;;;;;6186396;23;20001;-90
2021/12/18 02:22:47;;;;;;;14.38;9.00;;;103.00;2227.20;;;;;;6198010;23;20027;-91
2021/12/18 02:25:13;;;;;;;11.25;7.25;;;102.90;2227.20;;;;;;6187390;23;20013;-90
2021/12/18 02:27:39;;;;;;;14.15;9.30;;;102.90;2227.20;;;;;;6161485;23;20443;-91
2021/12/18 02:30:06;;;;;;;10.70;8.30;;;102.90;2227.20;;;;;;6161385;23;20001;-91
2021/12/18 02:32:32;;;;;;;15.50;9.30;;;102.40;2227.20;;;;;;6161576;23;19992;-91
2021/12/18 02:35:03;;;;;;;13.05;8.40;;;102.90;2227.20;;;;;;6160863;23;20001;-91
2021/12/18 02:37:29;;;;;;;14.25;9.70;;;102.90;2227.20;;;;;;6161456;23;20012;-90
2021/12/18 02:42:42;;;;;;;19.63;10.98;;;102.90;2227.20;;;;;;6126903;23;20086;-90
2021/12/18 02:45:08;;;;;;;18.48;11.45;;;103.00;2227.20;;;;;;6161501;23;19997;-92
2021/12/18 02:47:34;;;;;;;18.10;11.35;;;103.00;2227.20;;;;;;6161529;23;20001;-91
2021/12/18 02:50:00;;;;;;;22.80;13.10;;;103.00;2227.20;;;;;;6161556;23;20027;-91
2021/12/18 02:52:28;;;;;;;17.52;10.60;;;103.10;2227.20;;;;;;6161401;23;20004;-91
2021/12/18 02:54:54;;;;;;;29.05;16.80;;;103.10;2227.20;;;;;;6161125;23;19993;-91
2021/12/18 02:57:20;;;;;;;20.98;12.93;;;103.10;2227.20;;;;;;6161426;23;20313;-91
2021/12/18 02:59:49;;;;;;;17.30;9.90;;;103.10;2227.20;;;;;;6161546;23;19997;-91
2021/12/18 03:02:17;;;;;;;13.68;9.18;;;103.20;2227.20;;;;;;6161104;23;20015;-90
2021/12/18 03:04:46;;;;;;;14.15;9.48;;;103.20;2227.20;;;;;;6161029;23;20080;-91
2021/12/18 03:07:15;;;;;;;15.98;9.77;;;103.30;2227.20;;;;;;6187103;23;20076;-89
2021/12/18 03:25:33;;;;;;;17.50;11.73;;;103.20;2227.20;;;;;;6187581;23;19997;-91
2021/12/18 03:28:00;;;;;;;21.25;10.70;;;103.20;2227.20;;;;;;6161028;23;19997;-90
2021/12/18 03:30:26;;;;;;;15.25;10.38;;;103.20;2227.20;;;;;;6161103;23;20008;-90
2021/12/18 03:32:53;;;;;;;20.08;11.40;;;103.20;2227.20;;;;;;6161183;23;20377;-90
2021/12/18 03:35:19;;;;;;;16.02;11.27;;;103.20;2227.20;;;;;;6160794;23;19993;-90
2021/12/18 03:37:46;;;;;;;19.35;11.60;;;103.20;2227.20;;;;;;6160451;23;20051;-91
2021/12/18 03:40:15;;;;;;;22.67;13.73;;;103.20;2227.20;;;;;;6161017;23;19993;-91
2021/12/18 03:42:41;;;;;;;17.75;11.93;;;103.20;2227.20;;;;;;6160751;23;19997;-90
2021/12/18 03:45:09;;;;;;;19.60;12.95;;;103.00;2227.20;;;;;;6161228;23;19993;-91
2021/12/18 03:47:35;;;;;;;19.63;12.68;;;103.10;2227.20;;;;;;6163120;23;20001;-90
2021/12/18 03:50:02;;;;;;;25.80;14.15;;;103.10;2227.20;;;;;;6162864;23;19997;-91
2021/12/18 03:52:28;;;;;;;25.02;14.73;;;103.10;2227.20;;;;;;6163015;23;20036;-91
2021/12/18 03:54:54;;;;;;;20.52;14.10;;;103.00;2227.20;;;;;;6163099;23;20068;-90
2021/12/18 03:57:19;;;;;;;22.58;15.13;;;103.00;2227.20;;;;;;6162491;23;20410;-91
2021/12/18 03:59:45;;;;;;;21.95;14.80;;;103.00;2227.20;;;;;;6162708;23;20008;-91
2021/12/18 04:02:11;;;;;;;24.38;14.63;;;103.00;2227.20;;;;;;6162290;23;20415;-90
2021/12/18 04:04:37;;;;;;;24.25;13.88;;;103.00;2227.20;;;;;;6162496;23;20028;-91
2021/12/18 04:07:03;;;;;;;16.17;10.77;;;103.00;2227.20;;;;;;6188919;23;19996;-91
2021/12/18 04:09:30;;;;;;;17.45;12.82;;;102.90;2227.20;;;;;;6162881;23;19997;-92
2021/12/18 04:11:57;;;;;;;16.70;12.07;;;102.90;2227.20;;;;;;6162818;23;20001;-91
2021/12/18 04:14:22;;;;;;;19.60;12.25;;;103.00;2227.20;;;;;;6162492;23;20028;-91
2021/12/18 04:16:48;;;;;;;21.40;12.68;;;103.00;2227.20;;;;;;6162671;23;20001;-90
2021/12/18 04:19:14;;;;;;;20.17;12.35;;;103.00;2227.20;;;;;;6162563;23;20024;-92
2021/12/18 04:21:40;;;;;;;19.40;13.27;;;103.00;2227.20;;;;;;6162447;23;20115;-92
2021/12/18 04:24:07;;;;;;;19.00;13.48;;;103.00;2227.20;;;;;;6162445;23;20047;-91
2021/12/18 04:26:35;;;;;;;21.48;14.13;;;103.00;2227.20;;;;;;6162582;23;20000;-91
2021/12/18 04:29:01;;;;;;;21.20;12.27;;;102.90;2227.20;;;;;;6162789;23;20001;-91
2021/12/18 04:31:28;;;;;;;19.33;13.85;;;102.80;2227.20;;;;;;6162444;23;20011;-91
2021/12/18 04:33:54;;;;;;;23.35;12.93;;;102.90;2227.20;;;;;;6162576;23;20043;-92
2021/12/18 04:36:21;;;;;;;18.23;13.80;;;102.80;2227.20;;;;;;6162456;23;20034;-91
2021/12/18 04:38:48;;;;;;;23.67;14.32;;;102.90;2227.20;;;;;;6162540;23;20090;-91
2021/12/18 04:41:21;;;;;;;21.33;12.30;;;103.00;2227.20;;;;;;6162190;23;20077;-91
2021/12/18 04:43:47;;;;;;;19.05;12.43;;;102.80;2227.20;;;;;;6162451;23;19993;-92
2021/12/18 04:46:13;;;;;;;23.92;14.10;;;102.80;2227.20;;;;;;6162802;23;20020;-92
2021/12/18 04:48:38;;;;;;;18.35;12.57;;;102.80;2227.20;;;;;;6162773;23;20392;-92
2021/12/18 04:51:04;;;;;;;20.65;12.63;;;102.70;2227.20;;;;;;6162641;23;20411;-91
2021/12/18 04:53:30;;;;;;;20.10;11.95;;;102.70;2227.20;;;;;;6162447;23;20008;-91
2021/12/18 04:55:56;;;;;;;17.50;11.10;;;102.70;2227.20;;;;;;6188767;23;20016;-91
2021/12/18 04:58:22;;;;;;;18.92;11.88;;;102.70;2227.20;;;;;;6162220;23;20407;-92
2021/12/18 05:00:48;;;;;;;22.88;14.38;;;102.70;2227.20;;;;;;6162127;23;20321;-92
2021/12/18 05:03:17;;;;;;;18.33;11.82;;;102.70;2227.20;;;;;;6162192;23;19997;-91
2021/12/18 05:05:43;;;;;;;18.13;12.88;;;102.70;2227.20;;;;;;6162258;23;19997;-92
2021/12/18 05:08:09;;;;;;;20.67;14.15;;;102.70;2227.20;;;;;;6162080;23;20001;-91
2021/12/18 05:10:35;;;;;;;17.67;12.65;;;102.70;2227.20;;;;;;6162210;23;20039;-92
2021/12/18 05:13:01;;;;;;;18.25;10.25;;;102.70;2227.20;;;;;;6162176;23;20024;-91
2021/12/18 05:15:27;;;;;;;22.77;12.35;;;102.50;2227.20;;;;;;6162329;23;20004;-91
2021/12/18 05:17:53;;;;;;;19.10;12.68;;;102.60;2227.20;;;;;;6162095;23;19997;-91
2021/12/18 05:20:19;;;;;;;16.65;11.75;;;102.60;2227.20;;;;;;6161882;23;20351;-90
2021/12/18 05:22:45;;;;;;;17.40;12.65;;;102.60;2227.20;;;;;;6162130;23;20035;-92
2021/12/18 05:25:11;;;;;;;19.67;13.13;;;102.60;2227.20;;;;;;6162530;23;19997;-91
2021/12/18 05:27:38;;;;;;;20.23;14.05;;;102.60;2227.20;;;;;;6162657;23;20001;-91
2021/12/18 05:30:09;;;;;;;18.40;11.80;;;102.60;2227.20;;;;;;6162308;23;20491;-92
2021/12/18 05:32:35;;;;;;;22.92;14.10;;;102.60;2227.20;;;;;;6162280;23;20035;-92
2021/12/18 05:35:03;;;;;;;18.30;13.55;;;102.50;2227.20;;;;;;6162067;23;19997;-92
2021/12/18 05:37:49;;;;;;;19.35;11.95;;;102.50;2227.20;;;;;;6162767;23;19996;-92
2021/12/18 05:40:24;;;;;;;20.42;13.43;;;102.50;2227.20;;;;;;6161951;23;20004;-91
2021/12/18 05:42:52;;;;;;;18.73;13.15;;;102.40;2227.20;;;;;;6161875;23;20005;-91
2021/12/18 05:45:19;;;;;;;19.63;10.90;;;77.70;2227.20;;;;;;6162196;23;20004;-91
2021/12/18 05:47:45;;;;;;;22.20;14.68;;;102.80;2227.20;;;;;;6163692;23;19997;-89
2021/12/18 05:50:14;;;;;;;22.85;12.70;;;102.50;2227.20;;;;;;6163371;23;20001;-88
2021/12/18 05:52:40;;;;;;;17.67;12.27;;;102.40;2227.20;;;;;;6161921;23;20012;-91
2021/12/18 05:55:07;;;;;;;22.90;13.63;;;102.50;2227.20;;;;;;6162044;23;19993;-91
2021/12/18 05:57:33;;;;;;;21.38;12.88;;;102.50;2227.20;;;;;;6161960;23;20001;-92
2021/12/18 05:59:59;;;;;;;34.35;19.00;;;102.40;2227.20;;;;;;6161787;23;20087;-91
2021/12/18 06:02:25;;;;;;;32.45;19.83;;;102.40;2227.20;;;;;;6161414;23;20004;-91
2021/12/18 06:04:50;;;;;;;18.52;11.63;;;77.70;2227.20;;;;;;6161679;23;20020;-91
2021/12/18 06:07:58;;;;;;;20.50;13.35;;;77.70;2227.20;;;;;;6161594;23;19997;-89
2021/12/18 06:10:06;;;;;;;20.63;13.55;;;102.40;2227.20;;;;;;6176045;23;19993;-88
2021/12/18 06:12:31;;;;;;;21.48;14.00;;;77.70;2227.20;;;;;;6161695;23;19993;-91
2021/12/18 06:14:57;;;;;;;21.95;12.57;;;102.40;2227.20;;;;;;6161293;23;20008;-91
2021/12/18 06:17:23;;;;;;;21.50;17.65;;;102.40;2227.20;;;;;;6161440;23;20029;-92
2021/12/18 06:19:49;;;;;;;21.27;15.35;;;77.70;2227.20;;;;;;6161375;23;20001;-92
2021/12/18 06:22:15;;;;;;;20.15;12.95;;;102.40;2227.20;;;;;;6161392;23;20005;-91
2021/12/18 06:24:41;;;;;;;16.15;11.50;;;102.40;2227.20;;;;;;6161565;23;20035;-91
2021/12/18 06:27:07;;;;;;;15.57;10.55;;;102.40;2227.20;;;;;;6161764;23;20033;-91
2021/12/18 06:29:33;;;;;;;17.92;11.45;;;102.40;2227.20;;;;;;6161579;23;20001;-92
2021/12/18 06:32:01;;;;;;;22.88;13.30;;;102.50;2227.20;;;;;;6161290;23;20001;-91
2021/12/18 06:34:27;;;;;;;14.15;9.82;;;102.50;2227.20;;;;;;6161818;23;20019;-91
2021/12/18 06:36:53;;;;;;;16.30;10.38;;;102.40;2227.20;;;;;;6161759;23;20304;-91
2021/12/18 06:39:18;;;;;;;17.15;11.23;;;102.40;2227.20;;;;;;6164296;23;20004;-91
2021/12/18 06:41:44;;;;;;;18.40;11.15;;;102.40;2227.20;;;;;;6163665;23;20005;-93
2021/12/18 06:44:10;;;;;;;25.30;18.42;;;102.40;2227.20;;;;;;6161532;23;20027;-91
2021/12/18 06:46:36;;;;;;;28.75;21.85;;;102.40;2227.20;;;;;;6161915;23;20135;-92
2021/12/18 06:49:04;;;;;;;34.10;23.05;;;102.40;2227.20;;;;;;6161494;23;19993;-91
2021/12/18 06:51:30;;;;;;;21.77;15.40;;;102.50;2227.20;;;;;;6161232;23;20091;-91
2021/12/18 06:53:55;;;;;;;23.17;15.30;;;102.40;2227.20;;;;;;6161669;23;20040;-93
2021/12/18 06:56:21;;;;;;;25.65;15.55;;;102.40;2227.20;;;;;;6167038;23;20005;-91
2021/12/18 06:58:47;;;;;;;19.95;12.13;;;102.50;2227.20;;;;;;6181512;23;20008;-89
2021/12/18 07:01:13;;;;;;;18.20;11.15;;;102.50;2227.20;;;;;;6172037;23;20012;-89
2021/12/18 07:03:39;;;;;;;24.15;14.80;;;102.50;2227.20;;;;;;6161453;23;20008;-90
2021/12/18 07:06:04;;;;;;;18.67;12.45;;;102.50;2227.20;;;;;;6161181;23;20346;-90
2021/12/18 07:08:30;;;;;;;19.38;13.52;;;102.50;2227.20;;;;;;6161164;23;20028;-91
2021/12/18 07:10:56;;;;;;;24.95;17.05;;;102.50;2227.20;;;;;;6161210;23;20380;-89
2021/12/18 07:13:23;;;;;;;36.20;18.48;;;102.50;2227.20;;;;;;6161261;23;20399;-90
2021/12/18 07:15:49;;;;;;;23.15;14.73;;;102.50;2227.20;;;;;;6161141;23;19997;-91
2021/12/18 07:18:15;;;;;;;22.08;13.55;;;102.50;2227.20;;;;;;6161217;23;20007;-90
2021/12/18 07:20:41;;;;;;;26.48;16.88;;;102.50;2227.20;;;;;;6161449;23;20314;-89
2021/12/18 07:23:07;;;;;;;41.45;23.63;;;102.50;2227.20;;;;;;6162666;23;20076;-90
2021/12/18 07:25:33;;;;;;;26.13;16.20;;;102.50;2227.20;;;;;;6163260;23;20001;-91
2021/12/18 07:27:58;;;;;;;18.65;11.60;;;102.60;2227.20;;;;;;6163184;23;20004;-90
2021/12/18 07:30:24;;;;;;;16.10;9.70;;;102.50;2227.20;;;;;;6162947;23;20040;-89
2021/12/18 07:32:50;;;;;;;15.00;9.30;;;102.50;2227.20;;;;;;6163356;23;20004;-90
2021/12/18 07:35:16;;;;;;;24.27;15.00;;;102.50;2227.20;;;;;;6162947;23;19997;-90
2021/12/18 07:37:42;;;;;;;34.05;22.00;;;102.80;2227.20;;;;;;6163225;23;20323;-90
2021/12/18 07:40:09;;;;;;;18.92;13.07;;;102.60;2227.20;;;;;;6162903;23;19993;-90
2021/12/18 07:42:35;;;;;;;29.30;17.70;;;102.60;2227.20;;;;;;6163046;23;20005;-90
2021/12/18 07:45:03;;;;;;;19.58;13.70;;;102.60;2227.20;;;;;;6163078;23;20004;-90
2021/12/18 07:47:29;;;;;;;29.85;19.85;;;102.60;2227.20;;;;;;6163080;23;20059;-90
2021/12/18 07:49:54;;;;;;;23.92;15.73;;;102.60;2227.20;;;;;;6162915;23;20032;-89
2021/12/18 07:52:21;;;;;;;23.25;13.95;;;102.60;2227.20;;;;;;6162952;23;20001;-90
2021/12/18 07:54:47;;;;;;;14.18;9.25;;;102.60;2227.20;;;;;;6163357;23;20001;-90
2021/12/18 07:57:13;;;;;;;14.93;9.50;;;102.70;2227.20;;;;;;6163151;23;20423;-90
2021/12/18 07:59:39;;;;;;;28.23;17.85;;;102.70;2227.20;;;;;;6162974;23;19997;-91
2021/12/18 08:02:05;;;;;;;29.23;18.48;;;102.70;2227.20;;;;;;6163029;23;20139;-90
2021/12/18 08:04:33;;;;;;;33.03;18.83;;;102.60;2227.20;;;;;;6163286;23;20311;-90
2021/12/18 08:06:59;;;;;;;23.73;15.02;;;102.70;2227.20;;;;;;6162498;23;20307;-90
2021/12/18 08:09:25;;;;;;;27.33;16.80;;;102.80;2227.20;;;;;;6162869;23;19997;-90
2021/12/18 08:11:50;;;;;;;30.38;19.20;;;102.70;2227.20;;;;;;6162563;23;20284;-91
2021/12/18 08:14:16;;;;;;;29.90;20.63;;;102.70;2227.20;;;;;;6162586;23;20012;-91
2021/12/18 08:16:42;;;;;;;25.92;17.52;;;102.70;2227.20;;;;;;6162782;23;20004;-91
2021/12/18 08:19:08;;;;;;;18.85;12.43;;;102.70;2227.20;;;;;;6162564;23;19997;-91
2021/12/18 08:21:34;;;;;;;27.77;15.88;;;102.70;2227.20;;;;;;6162555;23;20005;-90
2021/12/18 08:24:00;;;;;;;25.25;14.73;;;102.80;2227.20;;;;;;6162807;23;20065;-91
2021/12/18 08:26:26;;;;;;;22.38;15.45;;;102.80;2227.20;;;;;;6162494;23;20001;-90
2021/12/18 08:28:51;;;;;;;17.55;11.50;;;102.80;2227.20;;;;;;6162400;23;20470;-90
2021/12/18 08:31:17;;;;;;;30.63;19.65;;;102.80;2227.20;;;;;;6162526;23;20001;-93
2021/12/18 08:33:43;;;;;;;19.77;12.68;;;102.80;2227.20;;;;;;6162437;23;20020;-90
2021/12/18 08:36:09;;;;;;;19.98;14.43;;;102.80;2227.20;;;;;;6162864;23;20289;-90
2021/12/18 08:38:35;;;;;;;21.30;12.07;;;102.80;2227.20;;;;;;6162831;23;20028;-90
2021/12/18 08:41:01;;;;;;;16.30;9.52;;;102.70;2227.20;;;;;;6162499;23;20005;-91
2021/12/18 08:43:27;;;;;;;15.45;10.00;;;102.70;2227.20;;;;;;6162523;23;20060;-91
2021/12/18 08:45:53;;;;;;;33.88;27.27;;;102.70;2227.20;;;;;;6162395;23;20007;-91
2021/12/18 08:48:19;;;;;;;23.17;16.05;;;102.70;2227.20;;;;;;6162257;23;20000;-90
2021/12/18 08:50:44;;;;;;;23.63;16.42;;;102.80;2227.20;;;;;;6162468;23;20001;-90
2021/12/18 08:53:10;;;;;;;23.80;17.67;;;102.80;2227.20;;;;;;6162426;23;20010;-90
2021/12/18 08:55:36;;;;;;;26.83;20.27;;;102.80;2227.20;;;;;;6162380;23;20088;-90
2021/12/18 08:58:02;;;;;;;30.83;20.83;;;102.90;2227.20;;;;;;6162858;23;19997;-90
2021/12/18 09:00:30;;;;;;;22.67;15.23;;;102.90;2227.20;;;;;;6162600;23;20001;-90
2021/12/18 09:02:57;;;;;;;23.45;17.98;;;102.90;2227.20;;;;;;6162592;23;20299;-91
2021/12/18 09:05:24;;;;;;;27.85;18.85;;;102.80;2227.20;;;;;;6162506;23;20005;-90
2021/12/18 09:07:50;;;;;;;32.50;21.42;;;102.80;2227.20;;;;;;6162317;23;20035;-91
2021/12/18 09:10:16;;;;;;;21.73;14.82;;;102.80;2227.20;;;;;;6162012;23;20028;-90
2021/12/18 09:12:43;;;;;;;22.50;14.73;;;102.90;2227.20;;;;;;6162179;23;20021;-90
2021/12/18 09:15:10;;;;;;;23.90;15.27;;;102.90;2227.20;;;;;;6162251;23;20355;-90
2021/12/18 09:17:36;;;;;;;20.13;13.88;;;102.90;2227.20;;;;;;6162213;23;20359;-90
2021/12/18 09:20:03;;;;;;;25.70;16.77;;;103.00;2227.20;;;;;;6162117;23;19997;-90
2021/12/18 09:22:29;;;;;;;26.63;18.75;;;103.00;2227.20;;;;;;6162057;23;20035;-90
2021/12/18 09:24:55;;;;;;;23.85;16.08;;;103.10;2227.20;;;;;;6162075;23;20407;-88
2021/12/18 09:27:22;;;;;;;29.30;18.77;;;103.20;2227.20;;;;;;6161985;23;20005;-89
2021/12/18 09:29:48;;;;;;;28.02;21.23;;;103.10;2227.20;;;;;;6161825;23;20000;-89
2021/12/18 09:32:14;;;;;;;36.30;27.00;;;103.20;2227.20;;;;;;6161932;23;19997;-91
2021/12/18 09:34:40;;;;;;;35.55;24.08;;;103.10;2227.20;;;;;;6161954;23;20000;-89
2021/12/18 09:37:07;;;;;;;26.60;20.02;;;103.10;2227.20;;;;;;6161875;23;20285;-90
2021/12/18 09:39:33;;;;;;;20.10;13.85;;;103.10;2227.20;;;;;;6161944;23;19996;-90
2021/12/18 09:41:59;;;;;;;20.17;14.57;;;103.00;2227.20;;;;;;6161712;23;20031;-90
2021/12/18 09:44:28;;;;;;;20.08;11.88;;;128.00;2252.80;;;;;;6161462;23;20051;-90
2021/12/18 09:46:54;;;;;;;22.77;13.85;;;103.00;2227.20;;;;;;6161649;23;19997;-89
2021/12/18 09:49:20;;;;;;;14.48;9.77;;;103.00;2227.20;;;;;;6161642;23;19997;-89
2021/12/18 09:51:46;;;;;;;28.15;15.63;;;103.00;2227.20;;;;;;6161719;23;20004;-90
2021/12/18 09:54:12;;;;;;;21.13;12.95;;;103.20;2227.20;;;;;;6161822;23;20000;-90
2021/12/18 09:56:39;;;;;;;101.53;49.13;;;103.00;2227.20;;;;;;6161695;23;20013;-90
2021/12/18 09:59:06;;;;;;;55.60;36.45;;;103.00;2227.20;;;;;;6162091;23;20005;-90
2021/12/18 10:01:32;;;;;;;34.13;25.15;;;103.10;2227.20;;;;;;6161660;23;20005;-89
2021/12/18 10:04:01;;;;;;;43.60;32.35;;;103.10;2227.20;;;;;;6161648;23;20002;-93
2021/12/18 10:06:43;;;;;;;31.88;24.73;;;103.10;2227.20;;;;;;6161749;23;20052;-89
2021/12/18 10:09:28;;;;;;;17.93;12.97;;;103.10;2227.20;;;;;;6161710;23;20408;-89
2021/12/18 10:11:57;;;;;;;35.45;27.92;;;103.00;2227.20;;;;;;6161297;23;20004;-87
2021/12/18 10:14:40;;;;;;;19.13;14.20;;;103.00;2227.20;;;;;;6187494;23;19997;-89
2021/12/18 10:17:25;;;;;;;25.07;16.97;;;103.00;2227.20;;;;;;6161530;23;20021;-90
2021/12/18 10:19:53;;;;;;;17.83;12.60;;;103.00;2227.20;;;;;;6161582;23;20442;-90
2021/12/18 10:22:20;;;;;;;20.88;16.73;;;103.00;2227.20;;;;;;6161602;23;20047;-90
2021/12/18 10:25:01;;;;;;;21.15;14.30;;;102.90;2227.20;;;;;;6161689;23;20024;-90
2021/12/18 10:27:27;;;;;;;22.00;16.33;;;103.00;2227.20;;;;;;6161423;23;20025;-90
2021/12/18 10:30:06;;;;;;;36.45;25.58;;;102.90;2227.20;;;;;;6161503;23;19997;-87
2021/12/18 10:32:32;;;;;;;18.40;12.10;;;102.90;2227.20;;;;;;6160069;23;20004;-81
2021/12/18 10:34:59;;;;;;;21.13;15.85;;;102.80;2227.20;;;;;;6160356;23;19997;-82
2021/12/18 10:37:25;;;;;;;26.38;18.45;;;102.80;2227.20;;;;;;6160558;23;19997;-80
2021/12/18 10:39:53;;;;;;;19.27;12.02;;;102.80;2227.20;;;;;;6160096;23;20288;-82
2021/12/18 10:42:28;;;;;;;19.70;12.23;;;102.80;2227.20;;;;;;6160562;23;20036;-90
2021/12/18 10:45:19;;;;;;;19.98;11.05;;;102.80;2227.20;;;;;;6161568;23;19997;-88
2021/12/18 10:48:05;;;;;;;17.88;11.95;;;102.80;2227.20;;;;;;6189272;23;19989;-89
2021/12/18 10:50:36;;;;;;;28.33;17.52;;;102.70;2227.20;;;;;;6164244;23;19998;-90
2021/12/18 10:53:08;;;;;;;45.00;29.38;;;102.80;2227.20;;;;;;6161883;23;20319;-87
2021/12/18 10:55:55;;;;;;;43.05;26.60;;;102.90;2227.20;;;;;;6160302;23;20005;-88
2021/12/18 10:58:34;;;;;;;24.52;14.70;;;102.90;2227.20;;;;;;6161231;23;20076;-87
2021/12/18 11:01:10;;;;;;;30.65;21.60;;;103.00;2227.20;;;;;;6160834;23;20009;-88
2021/12/18 11:03:39;;;;;;;30.40;23.73;;;103.00;2227.20;;;;;;6161006;23;20025;-87
2021/12/18 11:06:12;;;;;;;20.58;16.33;;;103.00;2227.20;;;;;;6160558;23;19997;-89
2021/12/18 11:09:12;;;;;;;30.48;19.42;;;103.00;2227.20;;;;;;6160884;23;20399;-88
2021/12/18 11:14:21;;;;;;;27.63;18.83;;;103.10;2227.20;;;;;;6186577;23;20060;-86
2021/12/18 11:16:55;;;;;;;77.30;31.67;;;103.20;2227.20;;;;;;6160834;23;20084;-79
2021/12/18 11:19:24;;;;;;;30.15;19.45;;;103.30;2227.20;;;;;;6160734;23;20036;-85
2021/12/18 11:22:15;;;;;;;31.30;20.65;;;128.00;2252.80;;;;;;6160159;23;20009;-88
2021/12/18 11:25:02;;;;;;;36.67;25.35;;;128.00;2252.80;;;;;;6160123;23;20001;-85
2021/12/18 11:27:29;;;;;;;32.80;21.05;;;128.10;2252.80;;;;;;6186962;23;20071;-92
2021/12/18 11:30:06;;;;;;;30.45;21.30;;;128.10;2252.80;;;;;;6163831;23;20015;-92
2021/12/18 11:32:44;;;;;;;26.60;20.25;;;128.10;2252.80;;;;;;6161249;23;20029;-92
2021/12/18 11:35:14;;;;;;;28.60;17.60;;;128.00;2252.80;;;;;;6161184;23;20005;-92
2021/12/18 11:37:53;;;;;;;37.10;24.58;;;128.00;2252.80;;;;;;6161404;23;19997;-93
2021/12/18 11:40:23;;;;;;;29.05;20.73;;;128.00;2252.80;;;;;;6161028;23;20005;-91
2021/12/18 11:42:49;;;;;;;28.50;18.58;;;128.00;2252.80;;;;;;6161205;23;20005;-92
2021/12/18 11:45:15;;;;;;;26.35;17.10;;;128.00;2252.80;;;;;;6161293;23;20083;-94
2021/12/18 11:47:44;;;;;;;25.08;16.90;;;128.00;2252.80;;;;;;6161117;23;19997;-94
2021/12/18 11:50:31;;;;;;;29.40;20.65;;;128.00;2252.80;;;;;;6161193;23;20351;-94
2021/12/18 11:53:09;;;;;;;23.60;14.38;;;103.30;2227.20;;;;;;6165814;23;19997;-92
2021/12/18 11:55:50;;;;;;;28.60;19.42;;;103.20;2227.20;;;;;;6182972;23;20009;-85
2021/12/18 11:58:22;;;;;;;40.67;24.10;;;103.20;2227.20;;;;;;6164870;23;19997;-87
2021/12/18 12:01:04;;;;;;;34.53;22.37;;;103.20;2227.20;;;;;;6160834;23;20412;-86
2021/12/18 12:03:38;;;;;;;29.27;19.00;;;103.20;2227.20;;;;;;6161507;23;20234;-94
2021/12/18 12:06:31;;;;;;;30.92;21.38;;;103.10;2227.20;;;;;;6161161;23;19997;-91
2021/12/18 12:09:13;;;;;;;31.25;18.33;;;128.00;2252.80;;;;;;6145226;23;19997;-91
2021/12/18 12:11:59;;;;;;;35.70;20.15;;;103.20;2227.20;;;;;;6162744;23;20040;-91
2021/12/18 12:14:30;;;;;;;34.13;22.05;;;103.30;2227.20;;;;;;6162985;23;20478;-91
2021/12/18 12:17:19;;;;;;;28.23;19.58;;;103.30;2227.20;;;;;;6162609;23;19993;-90
2021/12/18 12:19:53;;;;;;;24.95;15.18;;;103.30;2227.20;;;;;;6162955;23;20008;-93
2021/12/18 12:22:36;;;;;;;18.42;12.70;;;103.30;2227.20;;;;;;6162941;23;20044;-93
2021/12/18 12:25:06;;;;;;;28.05;20.45;;;103.20;2227.20;;;;;;6162511;23;19996;-93
2021/12/18 12:27:35;;;;;;;33.13;22.23;;;103.20;2227.20;;;;;;6162704;23;19997;-92
2021/12/18 12:30:06;;;;;;;24.10;17.20;;;103.30;2227.20;;;;;;6162429;23;20008;-93
2021/12/18 12:32:32;;;;;;;28.38;20.15;;;103.20;2227.20;;;;;;6162742;23;20059;-93
2021/12/18 12:35:12;;;;;;;27.63;21.15;;;103.10;2227.20;;;;;;6162713;23;20004;-93
2021/12/18 12:37:46;;;;;;;32.70;23.15;;;103.20;2227.20;;;;;;6162842;23;20303;-92
2021/12/18 12:40:28;;;;;;;40.22;26.02;;;103.20;2227.20;;;;;;6162865;23;19997;-92
2021/12/18 12:43:14;;;;;;;30.08;19.73;;;103.30;2227.20;;;;;;6162454;23;20060;-92
2021/12/18 12:45:41;;;;;;;20.58;15.73;;;103.20;2227.20;;;;;;6162488;23;20004;-90
2021/12/18 12:48:08;;;;;;;30.55;19.23;;;103.10;2227.20;;;;;;6162685;23;20039;-92
2021/12/18 12:50:34;;;;;;;40.45;26.38;;;103.00;2227.20;;;;;;6162688;23;19993;-92
2021/12/18 12:53:05;;;;;;;24.08;16.02;;;103.10;2227.20;;;;;;6162633;23;19993;-90
2021/12/18 12:55:37;;;;;;;34.08;22.38;;;103.00;2227.20;;;;;;6162130;23;20012;-91
2021/12/18 12:58:03;;;;;;;25.55;19.17;;;103.00;2227.20;;;;;;6162723;23;20001;-89